createdAt,value
2018-09-11T00:00:34.677Z,69.40
2018-09-11T00:03:39.644Z,70.39
2018-09-11T00:06:44.589Z,70.65
2018-09-11T00:09:49.594Z,70.15
2018-09-11T00:12:54.561Z,71.03
2018-09-11T00:15:59.533Z,70.25
2018-09-11T00:19:04.557Z,70.39
2018-09-11T00:22:09.504Z,70.61
2018-09-11T00:25:14.448Z,71.25
2018-09-11T00:28:19.398Z,71.31
2018-09-11T00:31:24.333Z,71.08
2018-09-11T00:34:29.244Z,71.03
2018-09-11T00:37:34.195Z,71.67
2018-09-11T00:40:39.141Z,71.22
2018-09-11T00:43:44.049Z,71.83
2018-09-11T00:46:48.984Z,71.76
2018-09-11T00:49:53.925Z,71.64
2018-09-11T00:52:59.073Z,70.68
2018-09-11T00:56:04.041Z,71.05
2018-09-11T00:59:08.968Z,71.92
2018-09-11T01:02:13.882Z,70.83
2018-09-11T01:05:18.794Z,71.56
2018-09-11T01:08:23.709Z,71.49
2018-09-11T01:11:28.621Z,71.57
2018-09-11T01:14:33.580Z,71.13
2018-09-11T01:17:38.548Z,72.08
2018-09-11T01:20:43.517Z,71.83
2018-09-11T01:23:48.442Z,72.29
2018-09-11T01:26:53.356Z,71.37
2018-09-11T01:29:58.283Z,71.37
2018-09-11T01:33:03.250Z,71.60
2018-09-11T01:36:08.236Z,72.84
2018-09-11T01:39:13.613Z,71.98
2018-09-11T01:42:18.526Z,71.76
2018-09-11T01:45:23.497Z,72.44
2018-09-11T01:48:28.439Z,72.08
2018-09-11T01:51:33.448Z,73.25
2018-09-11T01:54:38.418Z,73.34
2018-09-11T01:57:43.370Z,72.77
2018-09-11T02:00:48.324Z,71.88
2018-09-11T02:03:53.275Z,71.97
2018-09-11T02:06:58.320Z,72.70
2018-09-11T02:10:03.265Z,72.83
2018-09-11T02:13:08.260Z,73.05
2018-09-11T02:16:13.281Z,72.67
2018-09-11T02:19:18.209Z,73.26
2018-09-11T02:22:23.202Z,72.10
2018-09-11T02:25:28.152Z,71.91
2018-09-11T02:28:33.126Z,71.67
2018-09-11T02:31:38.054Z,72.11
2018-09-11T02:34:43.012Z,71.88
2018-09-11T02:37:48.192Z,73.09
2018-09-11T02:40:53.112Z,72.90
2018-09-11T02:43:58.106Z,73.63
2018-09-11T02:47:03.058Z,71.99
2018-09-11T02:50:08.373Z,72.71
2018-09-11T02:53:13.341Z,72.82
2018-09-11T02:56:18.264Z,72.72
2018-09-11T02:59:23.194Z,73.66
2018-09-11T03:02:28.121Z,74.52
2018-09-11T03:05:33.120Z,74.25
2018-09-11T03:08:38.077Z,74.48
2018-09-11T03:11:43.033Z,73.90
2018-09-11T03:14:47.968Z,73.22
2018-09-11T03:17:52.902Z,74.01
2018-09-11T03:20:57.861Z,74.12
2018-09-11T03:24:02.802Z,74.49
2018-09-11T03:27:07.778Z,73.36
2018-09-11T03:30:12.745Z,74.15
2018-09-11T03:33:17.702Z,73.75
2018-09-11T03:36:22.665Z,74.05
2018-09-11T03:39:27.637Z,73.64
2018-09-11T03:42:32.594Z,73.97
2018-09-11T03:45:41.396Z,73.67
2018-09-11T03:48:46.407Z,73.72
2018-09-11T03:51:51.332Z,73.81
2018-09-11T03:54:56.289Z,72.87
2018-09-11T03:58:01.423Z,74.07
2018-09-11T04:01:06.401Z,74.45
2018-09-11T04:04:11.343Z,74.75
2018-09-11T04:07:16.301Z,75.86
2018-09-11T04:10:21.241Z,76.09
2018-09-11T04:13:26.205Z,75.58
2018-09-11T04:16:31.154Z,74.64
2018-09-11T04:19:36.097Z,75.03
2018-09-11T04:22:41.070Z,74.42
2018-09-11T04:25:46.090Z,74.23
2018-09-11T04:28:51.023Z,74.41
2018-09-11T04:31:55.993Z,74.76
2018-09-11T04:35:00.924Z,75.15
2018-09-11T04:38:05.961Z,75.06
2018-09-11T04:41:11.017Z,75.35
2018-09-11T04:44:15.938Z,74.68
2018-09-11T04:47:20.910Z,75.04
2018-09-11T04:50:25.844Z,74.15
2018-09-11T04:53:30.802Z,74.70
2018-09-11T04:56:35.769Z,74.45
2018-09-11T04:59:40.719Z,75.26
2018-09-11T05:02:45.660Z,74.28
2018-09-11T05:05:50.582Z,74.58
2018-09-11T05:08:55.534Z,74.37
2018-09-11T05:12:00.512Z,74.52
2018-09-11T05:15:05.488Z,74.51
2018-09-11T05:18:10.482Z,74.15
2018-09-11T05:21:15.421Z,74.05
2018-09-11T05:24:20.375Z,74.27
2018-09-11T05:27:25.386Z,75.07
2018-09-11T05:30:30.299Z,76.06
2018-09-11T05:33:35.265Z,75.16
2018-09-11T05:36:40.196Z,76.10
2018-09-11T05:39:45.149Z,76.46
2018-09-11T05:42:50.085Z,76.10
2018-09-11T05:45:55.055Z,76.34
2018-09-11T05:49:00.010Z,75.94
2018-09-11T05:52:05.101Z,76.55
2018-09-11T05:55:10.067Z,75.89
2018-09-11T05:58:15.031Z,75.08
2018-09-11T06:01:20.031Z,76.77
2018-09-11T06:04:24.937Z,76.70
2018-09-11T06:07:29.952Z,76.29
2018-09-11T06:10:34.893Z,77.40
2018-09-11T06:13:39.806Z,77.49
2018-09-11T06:16:44.738Z,77.70
2018-09-11T06:19:49.659Z,77.42
2018-09-11T06:22:56.062Z,76.19
2018-09-11T06:26:01.029Z,75.79
2018-09-11T06:29:06.008Z,76.35
2018-09-11T06:32:10.894Z,75.86
2018-09-11T06:35:15.805Z,74.83
2018-09-11T06:38:20.723Z,74.94
2018-09-11T06:41:25.692Z,73.38
2018-09-11T06:44:30.618Z,72.60
2018-09-11T06:47:35.545Z,73.14
2018-09-11T06:50:40.492Z,72.24
2018-09-11T06:53:45.440Z,72.47
2018-09-11T06:56:50.379Z,71.47
2018-09-11T06:59:55.298Z,71.19
2018-09-11T07:03:00.230Z,70.78
2018-09-11T07:06:05.233Z,69.94
2018-09-11T07:09:10.676Z,68.81
2018-09-11T07:12:16.553Z,68.81
2018-09-11T07:15:21.553Z,66.43
2018-09-11T07:18:26.755Z,66.70
2018-09-11T07:21:31.770Z,64.76
2018-09-11T07:24:37.060Z,64.21
2018-09-11T07:27:42.047Z,63.85
2018-09-11T07:30:47.082Z,61.63
2018-09-11T07:33:52.029Z,63.03
2018-09-11T07:36:57.144Z,58.77
2018-09-11T07:40:02.134Z,56.88
2018-09-11T07:43:07.181Z,54.77
2018-09-11T07:46:12.147Z,53.72
2018-09-11T07:49:17.134Z,53.19
2018-09-11T07:52:22.128Z,51.39
2018-09-11T07:55:27.250Z,50.68
2018-09-11T07:58:32.220Z,48.80
2018-09-11T08:01:37.190Z,47.31
2018-09-11T08:04:42.135Z,47.57
2018-09-11T08:07:47.130Z,47.26
2018-09-11T08:10:52.062Z,46.46
2018-09-11T08:13:57.009Z,47.39
2018-09-11T08:17:02.010Z,44.94
2018-09-11T08:20:06.985Z,45.09
2018-09-11T08:23:12.003Z,43.97
2018-09-11T08:26:16.929Z,42.83
2018-09-11T08:29:21.951Z,43.78
2018-09-11T08:32:26.862Z,42.90
2018-09-11T08:35:31.822Z,43.26
2018-09-11T08:38:36.748Z,40.94
2018-09-11T08:41:41.675Z,41.21
2018-09-11T08:44:46.596Z,40.80
2018-09-11T08:47:52.317Z,39.33
2018-09-11T08:50:57.218Z,40.33
2018-09-11T08:54:02.124Z,40.33
2018-09-11T08:57:07.084Z,40.49
2018-09-11T09:00:12.012Z,41.69
2018-09-11T09:03:16.943Z,42.79
2018-09-11T09:06:21.869Z,42.18
2018-09-11T09:09:26.789Z,40.28
2018-09-11T09:12:31.737Z,40.64
2018-09-11T09:15:36.698Z,38.90
2018-09-11T09:18:41.632Z,38.28
2018-09-11T09:21:46.558Z,38.42
2018-09-11T09:24:51.510Z,37.58
2018-09-11T09:27:56.449Z,39.15
2018-09-11T09:31:01.397Z,37.96
2018-09-11T09:34:06.376Z,37.99
2018-09-11T09:37:11.693Z,37.98
2018-09-11T09:40:16.686Z,36.68
2018-09-11T09:43:21.651Z,36.05
2018-09-11T09:46:26.590Z,38.04
2018-09-11T09:49:31.548Z,36.96
2018-09-11T09:52:36.508Z,36.87
2018-09-11T09:55:41.517Z,36.78
2018-09-11T09:58:46.729Z,37.71
2018-09-11T10:01:57.445Z,37.69
2018-09-11T10:05:02.444Z,38.05
2018-09-11T10:08:07.421Z,36.73
2018-09-11T10:11:12.341Z,35.71
2018-09-11T10:14:17.290Z,36.76
2018-09-11T10:17:22.276Z,36.18
2018-09-11T10:20:27.235Z,37.31
2018-09-11T10:23:32.184Z,36.29
2018-09-11T10:26:37.126Z,36.15
2018-09-11T10:29:42.155Z,38.15
2018-09-11T10:32:47.090Z,36.86
2018-09-11T10:35:52.077Z,37.44
2018-09-11T10:38:57.045Z,35.94
2018-09-11T10:42:02.029Z,34.00
2018-09-11T10:45:07.127Z,36.12
2018-09-11T10:48:11.997Z,36.30
2018-09-11T10:51:16.954Z,36.13
2018-09-11T10:54:21.972Z,33.92
2018-09-11T10:57:26.918Z,33.34
2018-09-11T11:00:31.895Z,34.71
2018-09-11T11:03:36.844Z,35.09
2018-09-11T11:06:41.784Z,34.20
2018-09-11T11:09:46.879Z,34.23
2018-09-11T11:12:51.836Z,33.61
2018-09-11T11:15:56.796Z,33.45
2018-09-11T11:19:01.764Z,32.06
2018-09-11T11:22:06.744Z,33.29
2018-09-11T11:25:11.701Z,34.78
2018-09-11T11:28:16.647Z,36.68
2018-09-11T11:31:21.650Z,34.43
2018-09-11T11:34:26.611Z,34.02
2018-09-11T11:37:31.579Z,34.76
2018-09-11T11:40:36.645Z,34.25
2018-09-11T11:43:41.615Z,33.02
2018-09-11T11:46:46.581Z,33.14
2018-09-11T11:49:52.112Z,33.56
2018-09-11T11:52:57.088Z,33.95
2018-09-11T11:56:02.063Z,33.12
2018-09-11T11:59:07.003Z,34.43
2018-09-11T12:02:11.956Z,32.37
2018-09-11T12:05:16.979Z,32.55
2018-09-11T12:08:21.930Z,32.37
2018-09-11T12:14:28.729Z,32.76
2018-09-11T12:17:34.157Z,32.41
2018-09-11T12:20:39.558Z,32.13
2018-09-11T12:23:44.603Z,33.14
2018-09-11T12:26:50.052Z,33.57
2018-09-11T12:29:54.933Z,33.45
2018-09-11T12:33:00.071Z,33.12
2018-09-11T12:36:05.578Z,34.65
2018-09-11T12:39:11.169Z,33.45
2018-09-11T12:42:16.514Z,33.48
2018-09-11T12:45:21.920Z,32.56
2018-09-11T12:48:27.011Z,32.49
2018-09-11T12:51:31.914Z,32.51
2018-09-11T12:54:36.873Z,31.96
2018-09-11T12:57:42.226Z,32.41
2018-09-11T13:00:47.340Z,33.26
2018-09-11T13:03:52.328Z,32.18
2018-09-11T13:06:57.610Z,31.23
2018-09-11T13:10:02.839Z,32.11
2018-09-11T13:13:07.901Z,31.72
2018-09-11T13:16:13.094Z,30.87
2018-09-11T13:19:18.194Z,30.20
2018-09-11T13:22:23.383Z,30.46
2018-09-11T13:25:28.657Z,31.04
2018-09-11T13:28:33.736Z,32.14
2018-09-11T13:31:38.717Z,31.74
2018-09-11T13:34:43.695Z,31.17
2018-09-11T13:37:49.589Z,30.38
2018-09-11T13:40:54.581Z,30.16
2018-09-11T13:43:59.627Z,29.65
2018-09-11T13:47:05.122Z,30.81
2018-09-11T13:50:10.010Z,30.89
2018-09-11T13:53:15.478Z,31.00
2018-09-11T13:56:20.853Z,31.59
2018-09-11T13:59:25.989Z,32.33
2018-09-11T14:02:31.404Z,31.88
2018-09-11T14:05:36.375Z,31.43
2018-09-11T14:08:41.608Z,31.90
2018-09-11T14:11:46.489Z,31.40
2018-09-11T14:14:51.415Z,32.91
2018-09-11T14:17:56.371Z,31.93
2018-09-11T14:21:01.311Z,30.87
2018-09-11T14:24:06.270Z,31.70
2018-09-11T14:27:11.232Z,30.89
2018-09-11T14:30:16.208Z,31.35
2018-09-11T14:33:21.206Z,31.21
2018-09-11T14:36:26.156Z,31.85
2018-09-11T14:39:31.108Z,32.03
2018-09-11T14:42:36.089Z,32.21
2018-09-11T14:45:41.112Z,31.92
2018-09-11T14:48:46.081Z,32.36
2018-09-11T14:51:51.091Z,31.61
2018-09-11T14:54:56.052Z,31.13
2018-09-11T14:58:01.025Z,32.57
2018-09-11T15:01:06.266Z,31.44
2018-09-11T15:04:11.263Z,32.00
2018-09-11T15:07:16.237Z,31.74
2018-09-11T15:10:21.230Z,31.00
2018-09-11T15:13:26.205Z,30.85
2018-09-11T15:16:31.185Z,31.21
2018-09-11T15:19:36.206Z,31.53
2018-09-11T15:22:41.242Z,31.95
2018-09-11T15:25:46.142Z,31.21
2018-09-11T15:28:51.099Z,31.49
2018-09-11T15:31:56.066Z,31.09
2018-09-11T15:35:01.032Z,31.50
2018-09-11T15:38:06.038Z,30.56
2018-09-11T15:41:12.232Z,30.55
2018-09-11T15:44:17.233Z,31.18
2018-09-11T15:47:22.694Z,32.17
2018-09-11T15:50:27.833Z,31.45
2018-09-11T15:53:32.869Z,31.15
2018-09-11T15:56:38.139Z,31.56
2018-09-11T15:59:43.900Z,31.40
2018-09-11T16:02:49.139Z,31.54
2018-09-11T16:05:54.635Z,31.97
2018-09-11T16:08:59.597Z,31.43
2018-09-11T16:12:04.824Z,32.14
2018-09-11T16:15:09.915Z,31.54
2018-09-11T16:18:15.105Z,32.20
2018-09-11T16:21:20.041Z,31.50
2018-09-11T16:24:25.059Z,30.71
2018-09-11T16:27:30.168Z,31.61
2018-09-11T16:30:35.383Z,32.84
2018-09-11T16:33:40.381Z,32.61
2018-09-11T16:36:45.889Z,33.66
2018-09-11T16:39:51.157Z,33.83
2018-09-11T16:42:56.588Z,33.62
2018-09-11T16:46:01.623Z,33.19
2018-09-11T16:49:07.403Z,34.32
2018-09-11T16:52:12.365Z,34.57
2018-09-11T16:55:17.411Z,34.62
2018-09-11T16:58:22.430Z,35.31
2018-09-11T17:01:27.441Z,36.15
2018-09-11T17:04:33.871Z,37.85
2018-09-11T17:07:38.930Z,38.15
2018-09-11T17:10:44.249Z,39.25
2018-09-11T17:13:49.442Z,39.66
2018-09-11T17:16:54.929Z,40.64
2018-09-11T17:20:00.206Z,39.85
2018-09-11T17:23:05.200Z,41.64
2018-09-11T17:26:10.376Z,41.14
2018-09-11T17:29:15.556Z,41.84
2018-09-11T17:32:20.523Z,42.77
2018-09-11T17:35:25.519Z,42.15
2018-09-11T17:38:30.517Z,42.88
2018-09-11T17:41:35.850Z,43.16
2018-09-11T17:44:41.070Z,44.85
2018-09-11T17:47:46.229Z,44.94
2018-09-11T17:50:51.653Z,45.51
2018-09-11T17:53:56.865Z,45.55
2018-09-11T17:57:01.862Z,47.27
2018-09-11T18:00:07.686Z,46.84
2018-09-11T18:03:12.721Z,47.58
2018-09-11T18:06:17.663Z,48.29
2018-09-11T18:09:22.914Z,48.10
2018-09-11T18:12:28.314Z,48.57
2018-09-11T18:15:33.467Z,49.79
2018-09-11T18:18:38.409Z,48.87
2018-09-11T18:21:43.377Z,50.27
2018-09-11T18:24:48.710Z,50.32
2018-09-11T18:27:54.049Z,50.62
2018-09-11T18:30:58.994Z,51.03
2018-09-11T18:34:03.941Z,51.74
2018-09-11T18:37:08.948Z,51.57
2018-09-11T18:40:14.118Z,51.49
2018-09-11T18:43:19.434Z,52.22
2018-09-11T18:46:24.415Z,52.91
2018-09-11T18:49:29.350Z,54.07
2018-09-11T18:52:34.562Z,53.56
2018-09-11T18:55:39.753Z,53.50
2018-09-11T18:58:44.702Z,53.99
2018-09-11T19:01:49.713Z,54.44
2018-09-11T19:04:55.040Z,54.09
2018-09-11T19:08:00.553Z,54.39
2018-09-11T19:11:05.620Z,54.98
2018-09-11T19:14:10.676Z,55.47
2018-09-11T19:17:15.611Z,55.04
2018-09-11T19:20:20.632Z,56.00
2018-09-11T19:23:25.485Z,55.35
2018-09-11T19:26:30.420Z,56.20
2018-09-11T19:29:35.353Z,56.42
2018-09-11T19:32:40.809Z,55.79
2018-09-11T19:35:45.754Z,55.81
2018-09-11T19:38:50.690Z,56.52
2018-09-11T19:41:55.638Z,56.88
2018-09-11T19:45:00.582Z,57.05
2018-09-11T19:48:05.541Z,58.24
2018-09-11T19:51:10.517Z,59.00
2018-09-11T19:54:15.437Z,59.59
2018-09-11T19:57:20.438Z,59.73
2018-09-11T20:00:25.370Z,58.89
2018-09-11T20:03:30.309Z,59.59
2018-09-11T20:06:35.277Z,59.12
2018-09-11T20:09:40.188Z,58.66
2018-09-11T20:12:45.131Z,59.79
2018-09-11T20:15:50.069Z,59.48
2018-09-11T20:18:55.023Z,60.46
2018-09-11T20:21:59.977Z,59.98
2018-09-11T20:25:05.006Z,59.84
2018-09-11T20:28:09.967Z,59.71
2018-09-11T20:31:14.902Z,60.07
2018-09-11T20:34:19.829Z,59.90
2018-09-11T20:37:24.810Z,60.53
2018-09-11T20:40:29.737Z,61.42
2018-09-11T20:43:34.669Z,61.70
2018-09-11T20:46:39.766Z,61.12
2018-09-11T20:49:44.684Z,61.03
2018-09-11T20:52:49.632Z,62.10
2018-09-11T20:55:54.627Z,62.42
2018-09-11T20:58:59.618Z,62.00
2018-09-11T21:02:04.617Z,62.91
2018-09-11T21:05:09.525Z,62.22
2018-09-11T21:08:14.459Z,62.79
2018-09-11T21:11:19.379Z,63.14
2018-09-11T21:14:24.302Z,61.85
2018-09-11T21:17:29.280Z,61.99
2018-09-11T21:20:34.201Z,62.28
2018-09-11T21:23:39.183Z,63.09
2018-09-11T21:26:44.105Z,63.01
2018-09-11T21:29:48.998Z,63.58
2018-09-11T21:32:53.919Z,63.40
2018-09-11T21:35:58.841Z,63.13
2018-09-11T21:39:06.200Z,64.15
2018-09-11T21:42:11.152Z,63.36
2018-09-11T21:45:16.107Z,64.32
2018-09-11T21:48:21.041Z,63.62
2018-09-11T21:51:25.973Z,64.93
2018-09-11T21:54:30.910Z,63.96
2018-09-11T21:57:35.868Z,64.95
2018-09-11T22:04:18.180Z,63.97
2018-09-11T22:07:23.118Z,64.95
2018-09-11T22:10:28.081Z,64.51
2018-09-11T22:13:33.063Z,65.59
2018-09-11T22:16:38.621Z,64.96
2018-09-11T22:19:43.569Z,64.97
2018-09-11T22:22:48.508Z,65.20
2018-09-11T22:25:53.457Z,65.60
2018-09-11T22:28:58.580Z,65.77
2018-09-11T22:32:03.547Z,66.84
2018-09-11T22:35:08.486Z,66.09
2018-09-11T22:38:13.442Z,66.66
2018-09-11T22:41:18.428Z,66.15
2018-09-11T22:44:23.402Z,66.09
2018-09-11T22:47:28.315Z,66.21
2018-09-11T22:50:33.298Z,66.83
2018-09-11T22:53:38.245Z,67.55
2018-09-11T22:56:43.160Z,66.57
2018-09-11T22:59:48.097Z,66.08
2018-09-11T23:02:53.022Z,66.38
2018-09-11T23:05:57.954Z,67.36
2018-09-11T23:09:04.306Z,67.32
2018-09-11T23:12:09.301Z,67.53
2018-09-11T23:15:14.353Z,66.85
2018-09-11T23:18:19.282Z,67.70
2018-09-11T23:21:24.170Z,67.00
2018-09-11T23:24:29.081Z,67.83
2018-09-11T23:27:34.173Z,67.36
2018-09-11T23:30:39.133Z,67.84
2018-09-11T23:33:44.083Z,68.59
2018-09-11T23:36:49.037Z,68.53
2018-09-11T23:39:53.951Z,68.85
2018-09-11T23:42:58.871Z,68.71
2018-09-11T23:46:03.823Z,68.86
2018-09-11T23:49:08.770Z,68.51
2018-09-11T23:52:13.706Z,69.04
2018-09-11T23:55:18.653Z,69.41
2018-09-11T23:58:23.660Z,68.96
